Flight Track Log - Related Links

Times and Time Zones

All times are in EDT time to prevent confusion due to time zone crossing. See the N775NC flight status page for this flight to view local times or setup timezone preferences in your user account.

Time Position Orientation Groundspeed Altitude Reporting Facility
EDT Latitude Longitude Course Direction KTS MPH feet Rate Location/Type
Thu 02:13:55 PM 32.9694 -80.2333 254° West 244 281 6,400  Level Jacksonville Center
Thu 02:14:00 PM 32.9665 -80.4061 264° West  Level Estimated
Thu 02:14:55 PM 32.9692 -80.3150 270° West 253 291 9,200  Level Jacksonville Center
Thu 02:15:00 PM 32.9833 -80.4976 270° West  Level Estimated
Thu 02:15:55 PM 32.9708 -80.4017 271° West 253 291 10,600  Level Jacksonville Center
Thu 02:16:00 PM 32.9618 -80.5876 254° West  Level FlightAware Approximate
Thu 02:16:55 PM 32.9828 -80.4881 279° West 274 315 12,100  Level Jacksonville Center
Thu 02:17:00 PM 32.9410 -80.6744 254° West  Level FlightAware Approximate
Thu 02:17:55 PM 33.0078 -80.5864 287° West 291 335 14,400  Level Jacksonville Center
Thu 02:18:00 PM 32.9201 -80.7611 254° West  Level FlightAware Approximate
Thu 02:18:55 PM 33.0242 -80.6875 281° West 306 352 16,600  Level Jacksonville Center
Thu 02:19:55 PM 33.0028 -80.7922 256° West 316 364 18,100 1,600 Climbing Jacksonville Center
Thu 02:20:55 PM 32.9794 -80.8967 255° West 322 371 19,800 1,500 Climbing Jacksonville Center
Thu 02:21:55 PM 32.9203 -80.9844 231° Southwest 332 382 21,100 1,300 Climbing Jacksonville Center
Thu 02:22:55 PM 32.8400 -81.0631 219° Southwest 350 403 22,400 950 Climbing Jacksonville Center
Thu 02:23:55 PM 32.7556 -81.1436 219° Southwest 373 429 23,000 650 Climbing Jacksonville Center
Thu 02:24:55 PM 32.6608 -81.2369 220° Southwest 395 455 23,700 1,250 Climbing Jacksonville Center
Thu 02:25:55 PM 32.5786 -81.3197 220° Southwest 401 461 25,500 1,288 Climbing Jacksonville Center
Thu 02:28:20 PM 32.4900 -81.5786 248° West 363 418 28,100 732 Climbing Atlanta Center
Thu 02:29:20 PM 32.4967 -81.7067 274° West 376 433 28,000 -50 Descending Atlanta Center
Thu 02:30:20 PM 32.5075 -81.8369 276° West 389 448 28,000  Level Atlanta Center
Thu 02:31:20 PM 32.5119 -81.9772 272° West 395 455 28,000  Level Atlanta Center
Thu 02:32:20 PM 32.5058 -82.1078 267° West 390 449 28,000  Level Atlanta Center
Thu 02:33:20 PM 32.5119 -82.2358 273° West 395 455 28,000 50 Level Atlanta Center
Thu 02:34:20 PM 32.5347 -82.3633 282° West 395 455 28,100  Climbing Atlanta Center
Thu 02:35:20 PM 32.5572 -82.4911 282° West 401 461 28,000  Descending Atlanta Center
Thu 02:36:20 PM 32.5714 -82.6289 277° West 407 468 28,100 -50 Climbing Atlanta Center
Thu 02:37:20 PM 32.5622 -82.7622 265° West 407 468 27,900 -550 Descending Atlanta Center
Thu 02:38:20 PM 32.5867 -82.8925 283° West 399 459 27,000 -850 Descending Atlanta Center
Thu 02:39:20 PM 32.6792 -82.9875 319° Northwest 401 461 26,200 -850 Descending Atlanta Center
Thu 02:40:20 PM 32.7492 -83.0953 308° West 406 467 25,300 -900 Descending Atlanta Center
Thu 02:41:20 PM 32.8125 -83.2008 306° West 406 467 24,400 -900 Descending Atlanta Center
Thu 02:42:20 PM 32.8883 -83.3042 311° West 406 467 23,500 -2,100 Descending Atlanta Center
Thu 02:43:20 PM 32.9578 -83.4000 311° West 400 460 20,200 -3,050 Descending Atlanta Center
Thu 02:44:20 PM 33.0228 -83.4961 309° West 388 447 17,400 -2,800 Descending Atlanta Center
Thu 02:45:20 PM 33.0794 -83.5925 305° West 373 429 14,600 -2,550 Descending Atlanta Center
Thu 02:46:20 PM 33.1383 -83.6767 310° West 352 405 12,300 -1,300 Descending Atlanta Center
Thu 02:47:20 PM 33.1864 -83.7508 308° West 325 374 12,000 -150 Descending Atlanta Center
Thu 02:48:20 PM 33.2389 -83.8253 310° West 311 358 12,000 -100 Level Atlanta Center
Thu 02:49:20 PM 33.2911 -83.9022 309° West 301 346 11,800 -550 Descending Atlanta Center
Thu 02:50:20 PM 33.3350 -83.9692 308° West 279 321 10,900 -1,350 Descending Atlanta Center
Thu 02:51:20 PM 33.3767 -84.0314 309° West 251 289 9,100 -1,900 Descending Atlanta Center
Thu 02:52:20 PM 33.4331 -84.0661 333° Northwest 226 260 7,100 -1,850 Descending Atlanta Center
Thu 02:53:20 PM 33.5103 -84.0811 351° North 239 275 5,400 -1,250 Descending Atlanta Center
Thu 02:54:20 PM 33.5792 -84.0961 350° North 248 285 4,600 -556 Descending Atlanta Center
Thu 02:55:51 PM 33.6167 -84.1667 303° West 212 244 4,000 -238 Descending Atlanta TRACON
Thu 02:56:51 PM 33.6167 -84.2333 270° West 161 185 4,000 -400 Level Atlanta TRACON
Thu 02:57:51 PM 33.6167 -84.2833 270° West 167 192 3,200 -850 Descending Atlanta TRACON
Thu 02:58:51 PM 33.6167 -84.3333 270° West 162 186 2,300 -800 Descending Atlanta TRACON
Thu 02:59:51 PM 33.6167 -84.3833 270° West 141 162 1,600 -700 Descending Atlanta TRACON

Login

Don't have an account? Register now (free) for customized features, flight alerts, and more!